Time;durP1;ratioP1;P1;durP2;ratioP2;P2;SDS_P1;SDS_P2;PMS_P1;PMS_P2;Temp;Humidity;BMP_temperature;BMP_pressure;BME280_temperature;BME280_humidity;BME280_pressure;Samples;Min_cycle;Max_cycle;Signal;HPM_P1;HPM_P2
2022/05/07 00:01:43;;;;;;;5.07;2.05;;;21.60;57.80;;;;;;5012726;28;20053;-57
2022/05/07 00:04:09;;;;;;;3.08;1.50;;;21.60;57.80;;;;;;5011993;28;20091;-57
2022/05/07 00:06:34;;;;;;;2.35;1.60;;;21.60;57.80;;;;;;5015593;28;20057;-57
2022/05/07 00:09:00;;;;;;;3.65;1.70;;;21.60;57.80;;;;;;5016332;28;20124;-57
2022/05/07 00:11:25;;;;;;;3.05;1.35;;;21.60;57.80;;;;;;5015984;28;20046;-57
2022/05/07 00:13:51;;;;;;;3.80;1.75;;;21.60;57.80;;;;;;5016442;28;20054;-57
2022/05/07 00:19:01;;;;;;;2.88;1.67;;;21.60;57.70;;;;;;5015864;28;20128;-57
2022/05/07 00:21:26;;;;;;;3.38;1.70;;;21.50;57.60;;;;;;5016672;28;20125;-57
2022/05/07 00:23:52;;;;;;;2.45;1.35;;;21.50;57.60;;;;;;5016214;28;20072;-57
2022/05/07 00:26:17;;;;;;;3.13;1.50;;;21.50;57.60;;;;;;5016027;28;20049;-57
2022/05/07 00:28:44;;;;;;;2.47;1.52;;;21.50;57.60;;;;;;5016463;28;20135;-57
2022/05/07 00:31:10;;;;;;;4.32;1.75;;;21.60;57.70;;;;;;5016757;28;20054;-57
2022/05/07 00:33:35;;;;;;;3.05;1.70;;;21.60;57.60;;;;;;5015960;28;20042;-57
2022/05/07 00:36:01;;;;;;;3.63;1.50;;;21.50;57.60;;;;;;5015940;28;20103;-57
2022/05/07 00:38:26;;;;;;;2.42;1.60;;;21.50;57.60;;;;;;5016231;28;20482;-57
2022/05/07 00:40:52;;;;;;;2.67;1.73;;;21.50;57.50;;;;;;5015159;28;20056;-57
2022/05/07 00:43:18;;;;;;;1.98;1.55;;;21.50;57.50;;;;;;5016456;28;20178;-57
2022/05/07 00:45:46;;;;;;;4.32;1.40;;;21.50;57.50;;;;;;5016146;28;20448;-57
2022/05/07 00:48:12;;;;;;;3.42;1.52;;;21.50;57.50;;;;;;5015388;28;20042;-57
2022/05/07 00:53:23;;;;;;;3.58;1.60;;;21.50;57.50;;;;;;5015646;28;20045;-57
2022/05/07 00:55:49;;;;;;;3.80;1.80;;;21.50;57.50;;;;;;5014442;28;20045;-57
2022/05/07 00:58:15;;;;;;;2.90;1.45;;;21.50;57.50;;;;;;5016101;28;20050;-57
2022/05/07 01:00:43;;;;;;;2.88;1.65;;;21.50;57.40;;;;;;5015092;28;20049;-57
2022/05/07 01:03:09;;;;;;;4.35;1.63;;;21.50;57.40;;;;;;5015853;28;20065;-57
2022/05/07 01:05:35;;;;;;;2.33;1.40;;;21.50;57.40;;;;;;5015566;28;20489;-57
2022/05/07 01:08:00;;;;;;;2.55;1.60;;;21.40;57.40;;;;;;5014659;28;20038;-56
2022/05/07 01:10:26;;;;;;;4.30;1.70;;;21.50;57.40;;;;;;5015888;28;20042;-56
2022/05/07 01:12:52;;;;;;;2.78;1.65;;;21.40;57.30;;;;;;5015342;28;20486;-57
2022/05/07 01:15:17;;;;;;;3.80;1.85;;;21.40;57.30;;;;;;5013410;28;20046;-57
2022/05/07 01:17:43;;;;;;;2.53;1.60;;;21.40;57.30;;;;;;5014995;28;20052;-57
2022/05/07 01:20:10;;;;;;;3.42;1.70;;;21.40;57.30;;;;;;5015419;28;20048;-57
2022/05/07 01:22:36;;;;;;;2.23;1.57;;;21.40;57.30;;;;;;5014764;28;20046;-56
2022/05/07 01:25:01;;;;;;;2.63;1.42;;;21.40;57.30;;;;;;5015175;28;20049;-57
2022/05/07 01:27:27;;;;;;;2.65;1.63;;;21.40;57.30;;;;;;5015645;28;20042;-57
2022/05/07 01:29:52;;;;;;;2.65;1.73;;;21.40;57.30;;;;;;5014428;28;20076;-57
2022/05/07 01:32:18;;;;;;;3.83;1.88;;;21.30;57.20;;;;;;5015492;28;20042;-57
2022/05/07 01:34:43;;;;;;;2.67;1.70;;;21.40;57.20;;;;;;5015077;28;20050;-57
2022/05/07 01:37:09;;;;;;;3.65;1.90;;;21.40;57.20;;;;;;5014330;28;20436;-57
2022/05/07 01:39:35;;;;;;;2.90;1.80;;;21.40;57.30;;;;;;5015457;28;20081;-57
2022/05/07 01:42:00;;;;;;;2.15;1.33;;;21.30;57.20;;;;;;5015200;28;20069;-57
2022/05/07 01:44:26;;;;;;;5.25;1.85;;;21.30;57.20;;;;;;5014518;28;20038;-57
2022/05/07 01:49:43;;;;;;;3.50;1.50;;;21.30;57.20;;;;;;5013033;28;20112;-57
2022/05/07 01:52:09;;;;;;;3.70;1.70;;;21.30;57.20;;;;;;5015084;28;20041;-57
2022/05/07 01:54:34;;;;;;;3.28;1.75;;;21.30;57.20;;;;;;5015053;28;20100;-57
2022/05/07 01:57:00;;;;;;;3.65;1.50;;;21.30;57.10;;;;;;5013922;28;20046;-57
2022/05/07 01:59:25;;;;;;;3.00;1.98;;;21.30;57.10;;;;;;5014907;28;20405;-57
2022/05/07 02:01:52;;;;;;;3.28;1.58;;;21.30;57.10;;;;;;5013530;28;20042;-57
2022/05/07 02:04:17;;;;;;;3.53;1.60;;;21.30;57.10;;;;;;5028195;28;20085;-57
2022/05/07 02:06:43;;;;;;;2.10;1.42;;;21.30;57.10;;;;;;5014108;28;20555;-57
2022/05/07 02:09:08;;;;;;;4.18;1.90;;;21.30;57.10;;;;;;5014642;28;20042;-57
2022/05/07 02:11:34;;;;;;;2.70;1.60;;;21.30;57.10;;;;;;5013758;28;20065;-57
2022/05/07 02:13:59;;;;;;;3.75;2.03;;;21.30;57.10;;;;;;5014460;28;20038;-57
2022/05/07 02:16:25;;;;;;;2.53;1.63;;;21.20;57.10;;;;;;5014588;28;20052;-57
2022/05/07 02:18:50;;;;;;;2.53;1.58;;;21.30;57.10;;;;;;5013730;28;20050;-57
2022/05/07 02:21:16;;;;;;;4.55;1.80;;;21.30;57.10;;;;;;5014353;28;20072;-57
2022/05/07 02:23:41;;;;;;;3.00;1.70;;;21.30;57.10;;;;;;5014420;28;20046;-57
2022/05/07 02:26:07;;;;;;;3.22;1.90;;;21.20;57.00;;;;;;5013759;28;20078;-57
2022/05/07 02:28:32;;;;;;;3.08;1.58;;;21.30;57.00;;;;;;5013654;28;20056;-57
2022/05/07 02:30:58;;;;;;;2.25;1.70;;;21.20;57.00;;;;;;5013930;28;20108;-57
2022/05/07 02:33:23;;;;;;;2.47;1.40;;;21.30;57.00;;;;;;5013692;28;20066;-57
2022/05/07 02:35:49;;;;;;;2.55;1.70;;;21.20;56.90;;;;;;5013838;28;20165;-57
2022/05/07 02:38:14;;;;;;;2.47;1.70;;;21.20;56.90;;;;;;5014355;28;20069;-57
2022/05/07 02:43:24;;;;;;;2.67;1.90;;;21.20;57.00;;;;;;5014143;28;20046;-56
2022/05/07 02:45:50;;;;;;;3.97;1.75;;;21.20;57.00;;;;;;5013130;28;20394;-56
2022/05/07 02:48:16;;;;;;;2.58;1.58;;;21.20;57.00;;;;;;5013858;28;20048;-57
2022/05/07 02:50:41;;;;;;;3.33;1.50;;;21.20;57.00;;;;;;5013802;28;20454;-57
2022/05/07 02:53:07;;;;;;;4.35;1.88;;;21.20;57.00;;;;;;5012965;28;20037;-57
2022/05/07 02:55:32;;;;;;;3.70;1.70;;;21.20;57.00;;;;;;5013829;28;20046;-56
2022/05/07 02:57:58;;;;;;;2.50;1.55;;;21.20;56.90;;;;;;5013717;28;20104;-57
2022/05/07 03:00:23;;;;;;;3.17;1.80;;;21.20;56.90;;;;;;5013144;28;20053;-57
2022/05/07 03:02:49;;;;;;;2.47;1.83;;;21.20;57.00;;;;;;5013640;28;20092;-57
2022/05/07 03:05:15;;;;;;;3.78;1.92;;;21.20;56.90;;;;;;5013820;28;20054;-56
2022/05/07 03:07:40;;;;;;;3.08;1.67;;;21.20;56.90;;;;;;5012931;28;20077;-57
2022/05/07 03:10:06;;;;;;;2.13;1.50;;;21.20;56.90;;;;;;5013787;28;20049;-57
2022/05/07 03:12:32;;;;;;;3.47;1.58;;;21.20;56.90;;;;;;5013363;28;20141;-57
2022/05/07 03:14:58;;;;;;;2.88;1.50;;;21.20;56.90;;;;;;5012322;28;20874;-57
2022/05/07 03:17:26;;;;;;;2.92;1.85;;;21.10;56.90;;;;;;5013510;28;20504;-57
2022/05/07 03:19:52;;;;;;;3.17;1.70;;;21.20;56.90;;;;;;5011886;28;20060;-57
2022/05/07 03:22:17;;;;;;;3.38;2.00;;;21.10;57.60;;;;;;5012638;28;20029;-57
2022/05/07 03:24:43;;;;;;;4.13;1.70;;;21.10;56.80;;;;;;5013084;28;20515;-57
2022/05/07 03:27:08;;;;;;;2.63;1.63;;;21.10;56.80;;;;;;5013190;28;20041;-57
2022/05/07 03:29:34;;;;;;;2.30;1.60;;;21.10;56.80;;;;;;5012587;28;20046;-57
2022/05/07 03:31:59;;;;;;;2.50;1.60;;;21.10;56.80;;;;;;5013344;28;20091;-57
2022/05/07 03:34:25;;;;;;;3.70;1.90;;;21.10;56.80;;;;;;5013230;28;20042;-57
2022/05/07 03:36:50;;;;;;;3.15;1.98;;;21.10;56.80;;;;;;5012140;28;20179;-57
2022/05/07 03:39:16;;;;;;;3.33;1.92;;;21.10;56.70;;;;;;5013113;28;20041;-57
2022/05/07 03:41:41;;;;;;;4.47;2.80;;;21.10;56.70;;;;;;5013064;28;20115;-57
2022/05/07 03:44:07;;;;;;;3.15;1.83;;;21.10;56.80;;;;;;5012065;28;20046;-57
2022/05/07 03:46:33;;;;;;;3.17;1.85;;;21.10;56.70;;;;;;5013251;28;20056;-57
2022/05/07 03:48:58;;;;;;;2.90;1.90;;;21.10;56.70;;;;;;5011978;28;20057;-57
2022/05/07 03:51:24;;;;;;;2.88;1.90;;;21.10;56.70;;;;;;5013405;28;20129;-57
2022/05/07 03:53:49;;;;;;;3.75;2.13;;;21.10;56.70;;;;;;5012642;28;20042;-57
2022/05/07 03:56:15;;;;;;;3.00;2.20;;;21.10;56.70;;;;;;5012386;28;20156;-57
2022/05/07 03:58:41;;;;;;;4.60;2.15;;;21.10;56.70;;;;;;5012540;28;20045;-57
2022/05/07 04:01:08;;;;;;;4.30;2.03;;;21.10;56.70;;;;;;5006769;28;20121;-57
2022/05/07 04:03:33;;;;;;;3.30;2.00;;;21.00;56.60;;;;;;5004605;28;20050;-57
2022/05/07 04:05:59;;;;;;;3.25;2.08;;;21.10;56.70;;;;;;5011559;28;20049;-57
2022/05/07 04:08:24;;;;;;;2.67;1.98;;;21.10;56.70;;;;;;5012885;28;20038;-57
2022/05/07 04:10:50;;;;;;;3.65;1.95;;;21.00;56.60;;;;;;5011676;28;20038;-57
2022/05/07 04:13:16;;;;;;;3.08;2.30;;;21.00;56.60;;;;;;5012365;28;20452;-57
2022/05/07 04:15:43;;;;;;;3.33;2.33;;;21.10;56.70;;;;;;5012594;28;20052;-57
2022/05/07 04:18:08;;;;;;;3.72;2.33;;;21.00;56.70;;;;;;5012054;28;20045;-57
2022/05/07 04:20:34;;;;;;;4.40;2.30;;;21.00;56.70;;;;;;5012748;28;20046;-57
2022/05/07 04:23:00;;;;;;;3.67;2.00;;;21.00;56.60;;;;;;5012391;28;20080;-57
2022/05/07 04:25:25;;;;;;;3.30;2.15;;;21.00;56.60;;;;;;5011898;28;20046;-57
2022/05/07 04:27:51;;;;;;;3.30;2.15;;;21.00;56.60;;;;;;5011993;28;20046;-57
2022/05/07 04:30:16;;;;;;;2.88;2.30;;;21.00;56.60;;;;;;5012839;28;20046;-57
2022/05/07 04:32:42;;;;;;;4.20;2.33;;;21.00;56.60;;;;;;5011718;28;20126;-57
2022/05/07 04:35:08;;;;;;;4.50;2.58;;;21.00;56.60;;;;;;5012506;28;20034;-57
2022/05/07 04:37:33;;;;;;;3.75;2.58;;;21.00;56.60;;;;;;5012547;28;20529;-57
2022/05/07 04:39:59;;;;;;;3.28;2.03;;;21.00;56.60;;;;;;5011717;28;20124;-57
2022/05/07 04:42:24;;;;;;;4.60;2.53;;;21.00;56.60;;;;;;5011025;28;20042;-57
2022/05/07 04:44:50;;;;;;;3.65;2.30;;;21.00;56.60;;;;;;5012348;28;20050;-57
2022/05/07 04:47:15;;;;;;;3.35;2.33;;;21.00;56.60;;;;;;5011500;28;20030;-57
2022/05/07 04:49:41;;;;;;;4.82;2.80;;;21.00;56.50;;;;;;5012315;28;20128;-57
2022/05/07 04:52:06;;;;;;;3.35;2.58;;;21.00;56.50;;;;;;5014090;28;20046;-57
2022/05/07 04:54:32;;;;;;;4.18;2.25;;;21.00;56.60;;;;;;5015272;28;20486;-57
2022/05/07 04:56:58;;;;;;;4.13;2.55;;;21.00;56.60;;;;;;5015567;28;20049;-57
2022/05/07 04:59:23;;;;;;;3.10;2.50;;;20.90;56.50;;;;;;5015361;28;20520;-57
2022/05/07 05:01:49;;;;;;;3.55;2.40;;;21.00;56.60;;;;;;5015668;28;20112;-57
2022/05/07 05:04:14;;;;;;;4.25;2.70;;;21.00;56.60;;;;;;5015744;28;20425;-57
2022/05/07 05:06:40;;;;;;;4.88;2.70;;;21.00;56.60;;;;;;5014668;28;20034;-57
2022/05/07 05:09:06;;;;;;;3.20;2.38;;;21.00;56.60;;;;;;5015772;28;20509;-59
2022/05/07 05:11:32;;;;;;;3.33;2.50;;;20.90;56.50;;;;;;5015471;28;20516;-57
2022/05/07 05:13:58;;;;;;;5.15;2.58;;;20.90;56.50;;;;;;5014878;28;20045;-57
2022/05/07 05:16:23;;;;;;;5.20;3.05;;;20.90;56.50;;;;;;5015694;28;20057;-56
2022/05/07 05:18:49;;;;;;;4.28;2.85;;;21.00;56.60;;;;;;5015401;28;20038;-56
2022/05/07 05:21:15;;;;;;;4.18;2.40;;;20.90;56.60;;;;;;5014746;28;20046;-57
2022/05/07 05:23:40;;;;;;;3.63;2.50;;;20.90;56.60;;;;;;5015060;28;20049;-57
2022/05/07 05:26:06;;;;;;;4.32;2.45;;;20.90;56.60;;;;;;5015227;28;20045;-57
2022/05/07 05:28:32;;;;;;;3.40;2.38;;;20.90;56.60;;;;;;5014928;28;20050;-57
2022/05/07 05:30:58;;;;;;;4.05;2.45;;;20.90;56.60;;;;;;5015185;28;20061;-57
2022/05/07 05:33:24;;;;;;;3.97;2.83;;;20.90;56.60;;;;;;5015106;28;20505;-56
2022/05/07 05:35:49;;;;;;;4.03;2.60;;;20.90;56.60;;;;;;5014357;28;20040;-57
2022/05/07 05:38:15;;;;;;;4.03;2.35;;;20.90;56.60;;;;;;5015087;28;20567;-57
2022/05/07 05:40:41;;;;;;;4.88;2.70;;;20.90;56.70;;;;;;5014730;28;20045;-57
2022/05/07 05:43:10;;;;;;;3.45;2.55;;;20.90;56.70;;;;;;5014650;28;20140;-57
2022/05/07 05:45:36;;;;;;;3.83;2.50;;;20.90;56.60;;;;;;5015048;28;20042;-56
2022/05/07 05:48:02;;;;;;;3.47;2.75;;;20.90;56.70;;;;;;5014827;28;20125;-57
2022/05/07 05:50:31;;;;;;;3.33;2.47;;;20.90;56.70;;;;;;5014280;28;20389;-57
2022/05/07 05:52:57;;;;;;;3.58;2.70;;;20.90;56.60;;;;;;5014776;28;20042;-57
2022/05/07 05:55:23;;;;;;;3.63;2.78;;;20.90;56.70;;;;;;5014605;28;20049;-56
2022/05/07 05:57:49;;;;;;;4.30;2.72;;;20.90;56.70;;;;;;5014014;28;20038;-57
2022/05/07 06:00:15;;;;;;;4.00;2.50;;;20.90;56.60;;;;;;5014920;28;20049;-57
2022/05/07 06:02:44;;;;;;;3.40;2.72;;;20.90;56.60;;;;;;5012875;28;20485;-56
2022/05/07 06:05:09;;;;;;;3.67;2.53;;;20.90;56.70;;;;;;5014412;28;20045;-57
2022/05/07 06:07:35;;;;;;;4.28;2.58;;;20.90;56.70;;;;;;5014723;28;20104;-57
2022/05/07 06:10:00;;;;;;;3.33;2.47;;;20.90;56.70;;;;;;5013810;28;20042;-57
2022/05/07 06:12:26;;;;;;;3.95;2.75;;;20.90;56.70;;;;;;5014432;28;20068;-56
2022/05/07 06:14:54;;;;;;;3.38;2.50;;;20.90;56.70;;;;;;5014379;28;20057;-57
2022/05/07 06:17:19;;;;;;;2.87;2.47;;;20.90;56.70;;;;;;5013724;28;20125;-57
2022/05/07 06:19:44;;;;;;;4.05;2.78;;;20.90;56.70;;;;;;5014332;28;20448;-57
2022/05/07 06:22:10;;;;;;;3.55;2.47;;;20.90;56.70;;;;;;5014276;28;20041;-58
2022/05/07 06:27:31;;;;;;;3.80;2.65;;;20.90;56.70;;;;;;5013779;28;20474;-57
2022/05/07 06:30:03;;;;;;;3.85;2.70;;;20.90;56.70;;;;;;5013799;28;20068;-57
2022/05/07 06:32:35;;;;;;;5.28;2.90;;;20.90;56.70;;;;;;5013473;28;20089;-56
2022/05/07 06:35:04;;;;;;;4.75;2.70;;;20.90;56.70;;;;;;5013703;28;20466;-57
2022/05/07 06:37:31;;;;;;;4.00;3.05;;;21.00;57.70;;;;;;5014176;28;20096;-57
2022/05/07 06:39:56;;;;;;;6.05;3.10;;;20.90;57.00;;;;;;5013031;28;20130;-57
2022/05/07 06:42:22;;;;;;;5.60;3.22;;;21.00;57.40;;;;;;5014189;28;20126;-57
2022/05/07 06:44:47;;;;;;;4.68;2.90;;;21.00;57.40;;;;;;5013165;28;20042;-57
2022/05/07 06:47:14;;;;;;;5.80;3.15;;;21.10;57.60;;;;;;5014131;28;20045;-56
2022/05/07 06:49:40;;;;;;;5.68;3.15;;;21.10;57.50;;;;;;5013227;28;20497;-57
2022/05/07 06:52:05;;;;;;;5.30;2.45;;;21.10;57.60;;;;;;5012642;28;20081;-56
2022/05/07 06:54:31;;;;;;;3.80;2.70;;;21.10;57.60;;;;;;5013681;28;20045;-56
2022/05/07 06:56:56;;;;;;;5.28;2.92;;;21.20;57.70;;;;;;5012756;28;20132;-57
2022/05/07 06:59:22;;;;;;;5.88;2.90;;;21.20;57.70;;;;;;5012708;28;20046;-57
2022/05/07 07:01:48;;;;;;;4.72;2.90;;;21.20;57.80;;;;;;5013294;28;20466;-58
2022/05/07 07:04:13;;;;;;;8.05;3.13;;;21.20;57.90;;;;;;5012470;28;20390;-57
2022/05/07 07:06:39;;;;;;;3.72;2.58;;;21.20;57.90;;;;;;5011850;28;20111;-57
2022/05/07 07:09:04;;;;;;;5.40;2.95;;;21.30;58.10;;;;;;5013554;28;20046;-57
2022/05/07 07:11:31;;;;;;;10.60;3.38;;;21.30;58.20;;;;;;5013217;28;20041;-56
2022/05/07 07:13:56;;;;;;;6.50;3.03;;;21.30;58.20;;;;;;5010509;28;20401;-56
2022/05/07 07:16:22;;;;;;;5.13;2.88;;;21.30;58.30;;;;;;5013455;28;20643;-56
2022/05/07 07:18:47;;;;;;;6.78;3.10;;;21.30;58.40;;;;;;5013080;28;20474;-56
2022/05/07 07:21:13;;;;;;;8.63;2.70;;;21.30;58.40;;;;;;5012418;28;20050;-57
2022/05/07 07:23:39;;;;;;;8.05;2.75;;;21.30;58.60;;;;;;5013112;28;20042;-57
2022/05/07 07:26:04;;;;;;;7.68;2.58;;;21.40;58.50;;;;;;5013341;28;20426;-56
2022/05/07 07:28:30;;;;;;;4.07;2.60;;;21.30;58.50;;;;;;5012310;28;20472;-56
2022/05/07 07:30:55;;;;;;;4.35;2.83;;;21.40;58.60;;;;;;5012578;28;20060;-56
2022/05/07 07:33:21;;;;;;;6.85;2.70;;;21.40;58.50;;;;;;5013244;28;20442;-56
2022/05/07 07:35:46;;;;;;;7.63;2.63;;;21.40;58.60;;;;;;5011641;28;20049;-56
2022/05/07 07:38:12;;;;;;;5.10;2.65;;;21.40;58.70;;;;;;5012964;28;20033;-56
2022/05/07 07:40:38;;;;;;;5.15;2.40;;;21.50;58.80;;;;;;5013154;28;20145;-57
2022/05/07 07:43:04;;;;;;;3.38;2.53;;;21.50;58.90;;;;;;5012128;28;20050;-57
2022/05/07 07:48:14;;;;;;;4.68;2.45;;;21.50;59.00;;;;;;5012348;28;20160;-56
2022/05/07 07:50:39;;;;;;;5.97;2.83;;;21.60;59.10;;;;;;5012608;28;20045;-57
2022/05/07 07:53:07;;;;;;;5.15;2.50;;;21.50;59.10;;;;;;5012672;28;20077;-57
2022/05/07 07:55:32;;;;;;;5.30;2.65;;;21.50;59.10;;;;;;5012019;28;20050;-56
2022/05/07 07:57:59;;;;;;;8.30;2.92;;;21.60;59.30;;;;;;5012455;28;20417;-57
2022/05/07 08:00:25;;;;;;;4.40;3.17;;;21.60;59.20;;;;;;5012286;28;20064;-57
2022/05/07 08:02:56;;;;;;;8.50;2.88;;;21.60;59.30;;;;;;5011841;28;20103;-56
2022/05/07 08:05:26;;;;;;;4.45;2.47;;;21.60;59.20;;;;;;5012851;28;20042;-56
2022/05/07 08:13:20;;;;;;;4.22;2.10;;;21.60;59.20;;;;;;5012446;28;20050;-57
2022/05/07 08:15:46;;;;;;;4.50;2.38;;;21.60;59.30;;;;;;5011330;28;20045;-57
2022/05/07 08:18:15;;;;;;;4.15;2.50;;;21.60;59.30;;;;;;5011617;28;20466;-57
2022/05/07 08:20:43;;;;;;;3.78;2.38;;;21.60;59.30;;;;;;5008540;28;20041;-57
2022/05/07 08:23:09;;;;;;;5.70;2.75;;;21.60;59.40;;;;;;5011689;28;20038;-57
2022/05/07 08:25:35;;;;;;;4.85;2.55;;;21.60;59.50;;;;;;5011385;28;20552;-56
2022/05/07 08:28:01;;;;;;;5.57;2.38;;;21.60;59.50;;;;;;5014507;28;20030;-56
2022/05/07 08:30:26;;;;;;;3.95;2.42;;;21.60;59.50;;;;;;5015589;28;20041;-57
2022/05/07 08:32:52;;;;;;;4.53;2.60;;;21.70;59.60;;;;;;5015935;28;20414;-56
2022/05/07 08:35:18;;;;;;;4.78;2.70;;;21.70;59.60;;;;;;5015867;28;20540;-56
2022/05/07 08:37:44;;;;;;;4.60;2.58;;;21.70;59.60;;;;;;5014541;28;20129;-57
2022/05/07 08:40:13;;;;;;;3.20;2.20;;;21.60;59.60;;;;;;5016005;28;20400;-56
2022/05/07 08:42:39;;;;;;;3.30;2.45;;;21.70;60.30;;;;;;5015741;28;20042;-56
2022/05/07 08:45:05;;;;;;;4.82;2.30;;;21.70;59.70;;;;;;5014225;28;20406;-57
2022/05/07 08:47:30;;;;;;;3.47;2.28;;;21.70;59.80;;;;;;5016028;28;20041;-57
2022/05/07 08:49:57;;;;;;;3.92;2.40;;;21.70;59.80;;;;;;5014186;28;20038;-56
2022/05/07 08:52:22;;;;;;;4.07;2.20;;;21.70;59.80;;;;;;5011843;28;20038;-57
2022/05/07 08:54:48;;;;;;;4.40;2.63;;;21.70;59.80;;;;;;5014073;28;20037;-56
2022/05/07 08:57:14;;;;;;;4.20;2.80;;;21.80;60.00;;;;;;5016137;28;20085;-57
2022/05/07 08:59:40;;;;;;;3.75;2.80;;;21.80;59.90;;;;;;5014940;28;20057;-57
2022/05/07 09:02:06;;;;;;;4.93;2.50;;;21.80;59.80;;;;;;5014150;28;20045;-56
2022/05/07 09:04:31;;;;;;;3.40;2.38;;;21.80;59.60;;;;;;5016004;28;20049;-57
2022/05/07 09:06:58;;;;;;;4.40;2.40;;;21.90;59.60;;;;;;5014730;28;20054;-57
2022/05/07 09:09:23;;;;;;;4.05;2.40;;;21.90;59.50;;;;;;5015960;28;20046;-57
2022/05/07 09:11:49;;;;;;;4.15;2.65;;;21.90;59.30;;;;;;5015274;28;20064;-57
2022/05/07 09:14:18;;;;;;;5.07;2.60;;;22.00;59.30;;;;;;5015048;28;20054;-57
2022/05/07 09:16:50;;;;;;;3.63;2.50;;;22.00;59.10;;;;;;5015280;28;20060;-57
2022/05/07 09:19:19;;;;;;;3.17;2.05;;;21.90;59.00;;;;;;5015702;28;20081;-57
2022/05/07 09:21:45;;;;;;;4.60;2.65;;;22.00;59.00;;;;;;5014555;28;20041;-57
2022/05/07 09:24:10;;;;;;;4.75;2.80;;;22.00;59.00;;;;;;5014388;28;20046;-57
2022/05/07 09:26:39;;;;;;;3.90;2.42;;;22.00;59.00;;;;;;5014693;28;20050;-57
2022/05/07 09:29:07;;;;;;;3.85;2.63;;;22.00;59.00;;;;;;5015221;28;20401;-57
2022/05/07 09:31:33;;;;;;;3.92;2.88;;;22.00;59.00;;;;;;5015374;28;20085;-57
2022/05/07 09:35:47;;;;;;;3.22;2.42;;;22.00;59.10;;;;;;5014081;28;20088;-57
2022/05/07 09:36:45;;;;;;;5.60;2.60;;;22.00;59.20;;;;;;5014642;28;20085;-57
2022/05/07 09:39:17;;;;;;;4.32;2.35;;;22.00;59.30;;;;;;5014869;28;20072;-57
2022/05/07 09:41:43;;;;;;;5.25;2.97;;;22.00;59.30;;;;;;5006914;28;20081;-57
2022/05/07 09:44:12;;;;;;;5.30;2.80;;;22.00;59.20;;;;;;4999114;28;20109;-57
2022/05/07 09:46:38;;;;;;;5.53;2.90;;;22.00;59.20;;;;;;5014353;28;20054;-57
2022/05/07 09:49:05;;;;;;;3.60;2.60;;;22.00;59.30;;;;;;5013552;28;20081;-57
2022/05/07 09:51:31;;;;;;;4.68;2.47;;;22.00;59.20;;;;;;5013543;28;20038;-57
2022/05/07 09:59:25;;;;;;;4.82;2.60;;;22.00;59.40;;;;;;5014940;28;20045;-57
2022/05/07 10:02:16;;;;;;;4.15;2.60;;;21.90;59.50;;;;;;5013719;28;20037;-57
2022/05/07 10:05:04;;;;;;;5.55;2.80;;;22.00;59.60;;;;;;4994322;28;20096;-57
2022/05/07 10:07:51;;;;;;;4.40;2.50;;;21.90;59.60;;;;;;5013653;28;20038;-57
2022/05/07 10:10:25;;;;;;;4.18;2.35;;;21.90;59.70;;;;;;5013819;28;20061;-57
2022/05/07 10:12:51;;;;;;;5.25;2.58;;;22.00;59.80;;;;;;5013810;28;20053;-57
2022/05/07 10:15:20;;;;;;;6.38;2.33;;;21.90;59.80;;;;;;5013304;28;20545;-57
2022/05/07 10:17:45;;;;;;;4.30;2.83;;;21.90;59.90;;;;;;5013227;28;20096;-57
2022/05/07 10:20:13;;;;;;;7.00;3.22;;;22.00;59.90;;;;;;4997285;28;20143;-57
2022/05/07 10:22:39;;;;;;;3.70;2.22;;;22.00;60.00;;;;;;5013604;28;20060;-57
2022/05/07 10:25:12;;;;;;;5.32;2.38;;;22.00;59.90;;;;;;5011861;28;20045;-57
2022/05/07 10:27:39;;;;;;;4.75;2.40;;;22.00;59.80;;;;;;5013812;28;20046;-56
2022/05/07 10:30:06;;;;;;;4.90;1.85;;;22.00;59.80;;;;;;5010816;28;20095;-57
2022/05/07 10:32:58;;;;;;;5.50;2.70;;;22.00;60.00;;;;;;5013940;28;20042;-57
2022/05/07 10:35:40;;;;;;;5.57;3.20;;;22.00;60.00;;;;;;5013155;28;20062;-57
2022/05/07 10:38:13;;;;;;;3.35;2.40;;;22.00;60.10;;;;;;5013119;28;20128;-57
2022/05/07 10:40:54;;;;;;;3.85;2.03;;;22.00;60.10;;;;;;5013474;28;20042;-57
2022/05/07 10:43:33;;;;;;;5.07;2.40;;;22.00;60.00;;;;;;5014245;28;20081;-57
2022/05/07 10:46:09;;;;;;;6.07;2.28;;;22.00;60.00;;;;;;5012936;28;20100;-57
2022/05/07 10:49:07;;;;;;;6.22;2.92;;;22.00;59.90;;;;;;5012524;28;20057;-57
2022/05/07 10:51:39;;;;;;;3.33;2.30;;;22.00;60.00;;;;;;5012807;28;20101;-57
2022/05/07 10:54:22;;;;;;;3.75;2.53;;;22.00;60.00;;;;;;5013619;28;20509;-57
2022/05/07 10:56:54;;;;;;;4.50;2.30;;;22.00;59.90;;;;;;5013531;28;20056;-57
2022/05/07 10:59:21;;;;;;;3.83;2.35;;;22.10;59.90;;;;;;5013053;28;20046;-57
2022/05/07 11:01:46;;;;;;;3.88;2.42;;;22.10;59.90;;;;;;5013492;28;20042;-57
2022/05/07 11:04:13;;;;;;;4.78;2.08;;;22.10;59.90;;;;;;4996275;28;20107;-57
2022/05/07 11:06:49;;;;;;;5.53;2.63;;;22.10;59.80;;;;;;5012689;28;20046;-58
2022/05/07 11:09:16;;;;;;;4.65;2.38;;;22.10;59.80;;;;;;5013180;28;20053;-60
2022/05/07 11:11:45;;;;;;;5.85;2.53;;;22.10;59.80;;;;;;5012417;28;20054;-57
2022/05/07 11:14:26;;;;;;;4.53;2.45;;;22.10;59.60;;;;;;5008728;28;20053;-57
2022/05/07 11:16:53;;;;;;;6.35;2.50;;;22.10;59.60;;;;;;5012191;28;20096;-58
2022/05/07 11:19:28;;;;;;;4.35;2.47;;;22.10;59.60;;;;;;5012130;28;20044;-57
2022/05/07 11:21:55;;;;;;;4.35;3.10;;;22.10;59.70;;;;;;5012515;28;20042;-56
2022/05/07 11:24:21;;;;;;;5.00;2.50;;;22.10;59.60;;;;;;5010030;28;20485;-56
2022/05/07 11:26:53;;;;;;;7.60;2.78;;;22.10;59.70;;;;;;5011438;28;20038;-58
2022/05/07 11:29:19;;;;;;;10.40;3.90;;;22.10;59.60;;;;;;5013216;28;20042;-56
2022/05/07 11:31:57;;;;;;;8.23;3.35;;;22.10;59.70;;;;;;5011525;28;20053;-55
2022/05/07 11:34:28;;;;;;;;;;;22.10;59.70;;;;;;5012526;28;20122;-55
2022/05/07 11:36:54;;;;;;;9.55;3.65;;;22.10;59.60;;;;;;5012256;28;19925;-57
2022/05/07 11:39:19;;;;;;;10.48;4.55;;;22.10;59.70;;;;;;5012095;28;20056;-56
2022/05/07 11:41:52;;;;;;;12.40;4.35;;;22.10;59.60;;;;;;5012276;28;20444;-56
2022/05/07 11:47:22;;;;;;;7.47;3.65;;;22.20;59.60;;;;;;5012396;28;20041;-56
2022/05/07 11:50:02;;;;;;;10.77;4.25;;;22.20;59.60;;;;;;5012894;28;20060;-55
2022/05/07 11:52:28;;;;;;;9.52;3.97;;;22.10;59.60;;;;;;5012843;28;20663;-55
2022/05/07 11:54:53;;;;;;;9.10;4.10;;;22.20;59.60;;;;;;5011885;28;20049;-55
2022/05/07 11:57:29;;;;;;;8.15;4.10;;;22.20;59.60;;;;;;5013057;28;20120;-55
2022/05/07 11:59:55;;;;;;;8.25;4.15;;;22.20;59.60;;;;;;5012752;28;20048;-55
2022/05/07 12:02:20;;;;;;;11.60;4.13;;;22.20;59.50;;;;;;5012140;28;20042;-55
2022/05/07 12:04:46;;;;;;;7.30;4.10;;;22.20;59.50;;;;;;5012754;28;20046;-55
2022/05/07 12:07:12;;;;;;;9.48;4.38;;;22.20;59.40;;;;;;5011461;28;20064;-55
2022/05/07 12:09:37;;;;;;;8.48;3.67;;;22.20;59.40;;;;;;5012011;28;20559;-56
2022/05/07 12:12:03;;;;;;;7.80;4.25;;;22.20;59.40;;;;;;5012208;28;20058;-55
2022/05/07 12:14:29;;;;;;;10.85;4.43;;;22.20;59.30;;;;;;5012758;28;20046;-56
2022/05/07 12:19:39;;;;;;;7.50;3.65;;;22.30;59.30;;;;;;5012539;28;20133;-56
2022/05/07 12:30:18;;;;;;;8.55;3.60;;;22.30;59.20;;;;;;5011906;28;20501;-55
2022/05/07 12:32:45;;;;;;;7.35;3.50;;;22.30;59.10;;;;;;5012276;28;20042;-55
2022/05/07 12:35:13;;;;;;;8.43;4.18;;;22.30;59.00;;;;;;5012369;28;20136;-55
2022/05/07 12:37:39;;;;;;;7.60;4.05;;;22.40;59.10;;;;;;5011664;28;20149;-56
2022/05/07 12:40:07;;;;;;;7.88;3.90;;;22.30;59.00;;;;;;5012636;28;20125;-56
2022/05/07 12:42:32;;;;;;;7.72;3.75;;;22.40;59.00;;;;;;5012828;28;20523;-55
2022/05/07 12:44:58;;;;;;;9.88;3.83;;;22.40;59.00;;;;;;5011531;28;20096;-56
2022/05/07 12:47:23;;;;;;;7.97;3.55;;;22.40;59.00;;;;;;5012271;28;20128;-56
2022/05/07 12:49:49;;;;;;;11.32;4.28;;;22.40;59.00;;;;;;5011826;28;20109;-56
2022/05/07 12:52:16;;;;;;;8.75;3.47;;;22.40;58.90;;;;;;5011766;28;20049;-56
2022/05/07 12:54:41;;;;;;;7.72;3.90;;;22.40;58.90;;;;;;5012048;28;20050;-56
2022/05/07 12:57:07;;;;;;;9.68;3.67;;;22.30;58.80;;;;;;5012373;28;20053;-59
2022/05/07 12:59:33;;;;;;;9.00;3.88;;;22.40;58.80;;;;;;5011441;28;20046;-56
2022/05/07 13:02:01;;;;;;;7.40;3.53;;;22.40;58.90;;;;;;5012127;28;20057;-56
2022/05/07 13:04:27;;;;;;;8.55;3.08;;;22.40;58.80;;;;;;5010778;28;20379;-56
2022/05/07 13:06:53;;;;;;;7.95;3.78;;;22.40;58.80;;;;;;5011272;28;20053;-57
2022/05/07 13:09:18;;;;;;;10.98;3.72;;;22.40;58.70;;;;;;5012475;28;20049;-56
2022/05/07 13:11:44;;;;;;;10.57;3.85;;;22.40;58.70;;;;;;5011049;28;20054;-56
2022/05/07 13:14:10;;;;;;;9.15;3.88;;;22.40;58.80;;;;;;5015522;28;20041;-56
2022/05/07 13:16:36;;;;;;;7.70;3.25;;;22.40;58.80;;;;;;5015737;28;20045;-59
2022/05/07 13:19:01;;;;;;;9.48;3.20;;;22.40;58.90;;;;;;5013744;28;20592;-55
2022/05/07 13:21:27;;;;;;;7.60;3.42;;;22.40;59.10;;;;;;5015174;28;20046;-56
2022/05/07 13:23:52;;;;;;;9.48;3.05;;;22.40;59.20;;;;;;5014956;28;20049;-55
2022/05/07 13:26:18;;;;;;;6.50;3.00;;;22.40;59.30;;;;;;5014363;28;20088;-56
2022/05/07 13:28:43;;;;;;;8.10;3.20;;;22.50;59.30;;;;;;5014694;28;20496;-55